KBAB/BAB METAR and TAF weather

Enter ICAO airport designator
Station Type Date Time Source
KBAB METAR 2022/05/26 04:58 UTC NOAA

KBAB 260458Z 12007KT 10SM CLR 28/10 A2970 RMK AO2A SLP059 T02790097 $


Station Type Date Time Source
KBAB Decoded METAR 2022/05/26 04:58 UTC NOAA

Marysville, Beale Air Force Base, CA, United States (KBAB) 39-08N 121-26W
May 26, 2022 - 12:58 AM EDT / 2022.05.26 0458 UTC
Wind: from the ESE (120 degrees) at 8 MPH (7 KT):0
Visibility: 10 mile(s):0
Sky conditions: clear
Temperature: 82.2 F (27.9 C)
Dew Point: 49.5 F (9.7 C)
Relative Humidity: 32%
Pressure (altimeter): 29.7 in. Hg (1005 hPa)
ob: KBAB 260458Z 12007KT 10SM CLR 28/10 A2970 RMK AO2A SLP059 T02790097
cycle: 5

Station Type Date Time Source
KBAB TAF 2022/05/26 03:06 UTC NOAA

TAF TAF KBAB 260300Z 2603/2709 17009KT 9999 SKC QNH2964INS
BECMG 2614/2615 16012G18KT 9999 SKC QNH2979INS
BECMG 2623/2624 17010G15KT 9999 BKN140 QNH2979INS
BECMG 2703/2704 16009KT 9999 SCT130 QNH2985INS TX32/2603Z TN19/2613Z

Example: see airport list